Time;durP1;ratioP1;P1;durP2;ratioP2;P2;SDS_P1;SDS_P2;PMS_P1;PMS_P2;Temp;Humidity;BMP_temperature;BMP_pressure;BME280_temperature;BME280_humidity;BME280_pressure;Samples;Min_cycle;Max_cycle;Signal;HPM_P1;HPM_P2
2021/01/08 00:00:17;;;;;;;21.85;12.77;;;15.60;58.20;;;;;;4929048;29;20515;-63
2021/01/08 00:02:42;;;;;;;22.13;12.40;;;15.60;58.40;;;;;;4936065;29;20032;-63
2021/01/08 00:05:11;;;;;;;22.10;12.80;;;15.60;58.30;;;;;;4952856;28;20031;-62
2021/01/08 00:07:37;;;;;;;22.25;11.63;;;15.50;58.10;;;;;;4953215;29;20041;-63
2021/01/08 00:10:04;;;;;;;20.40;11.98;;;15.60;58.30;;;;;;4953343;29;20027;-62
2021/01/08 00:12:31;;;;;;;20.83;12.32;;;15.60;58.40;;;;;;4953615;29;20118;-62
2021/01/08 00:14:56;;;;;;;19.70;11.57;;;15.60;58.50;;;;;;4942114;29;20031;-61
2021/01/08 00:17:25;;;;;;;21.10;11.15;;;15.50;58.00;;;;;;4951214;29;20049;-62
2021/01/08 00:19:50;;;;;;;20.17;11.20;;;15.60;58.20;;;;;;4933760;29;20502;-62
2021/01/08 00:22:16;;;;;;;18.95;10.40;;;15.50;58.20;;;;;;4951164;29;20103;-63
2021/01/08 00:24:41;;;;;;;19.63;10.80;;;15.60;58.60;;;;;;4952623;28;20031;-62
2021/01/08 00:27:07;;;;;;;19.60;10.68;;;15.50;58.00;;;;;;4952756;29;20247;-63
2021/01/08 00:29:32;;;;;;;16.77;9.43;;;15.50;58.10;;;;;;4952774;29;20070;-62
2021/01/08 00:31:58;;;;;;;15.57;9.13;;;15.50;58.00;;;;;;4950898;29;20043;-62
2021/01/08 00:34:23;;;;;;;16.67;9.82;;;15.50;57.90;;;;;;4933202;29;20079;-63
2021/01/08 00:36:51;;;;;;;16.17;9.10;;;15.50;58.10;;;;;;4930898;29;20036;-62
2021/01/08 00:39:17;;;;;;;17.85;9.38;;;15.50;57.90;;;;;;4935711;29;20023;-63
2021/01/08 00:41:43;;;;;;;16.42;9.55;;;15.50;57.90;;;;;;4953230;29;20035;-62
2021/01/08 00:44:09;;;;;;;17.58;9.45;;;15.50;57.90;;;;;;4934578;28;20559;-61
2021/01/08 00:46:36;;;;;;;15.90;8.98;;;15.50;58.30;;;;;;4953045;29;20087;-63
2021/01/08 00:49:04;;;;;;;15.30;8.50;;;15.50;57.90;;;;;;4945442;28;20119;-62
2021/01/08 00:51:29;;;;;;;15.68;8.90;;;15.50;58.20;;;;;;4952519;29;20035;-63
2021/01/08 00:53:55;;;;;;;13.10;8.05;;;15.40;57.90;;;;;;4935222;28;20023;-63
2021/01/08 00:56:21;;;;;;;14.48;8.43;;;15.50;57.90;;;;;;4935418;29;20516;-63
2021/01/08 00:58:47;;;;;;;15.73;8.30;;;15.40;58.00;;;;;;4933647;29;20026;-63
2021/01/08 01:01:14;;;;;;;14.55;7.90;;;15.40;58.10;;;;;;4918398;28;20157;-63
2021/01/08 01:03:39;;;;;;;12.90;7.78;;;15.40;58.50;;;;;;4961671;28;20034;-60
2021/01/08 01:06:05;;;;;;;13.50;7.43;;;15.40;57.70;;;;;;4962679;28;20038;-63
2021/01/08 01:08:31;;;;;;;12.07;7.18;;;15.40;57.80;;;;;;4952459;29;20039;-62
2021/01/08 01:10:56;;;;;;;14.00;7.85;;;15.40;58.00;;;;;;4934488;29;20093;-61
2021/01/08 01:13:22;;;;;;;14.40;7.50;;;15.40;57.90;;;;;;4952227;29;20039;-63
2021/01/08 01:15:48;;;;;;;12.70;7.22;;;15.40;57.80;;;;;;4951423;28;20492;-63
2021/01/08 01:18:14;;;;;;;13.60;7.32;;;15.40;57.80;;;;;;4934973;29;20050;-63
2021/01/08 01:20:40;;;;;;;10.90;6.72;;;15.40;58.10;;;;;;4934955;29;20061;-63
2021/01/08 01:23:05;;;;;;;13.45;6.80;;;15.40;58.00;;;;;;4952533;29;20024;-63
2021/01/08 01:25:31;;;;;;;11.45;7.22;;;15.40;57.90;;;;;;4951766;29;20642;-63
2021/01/08 01:27:56;;;;;;;11.10;6.53;;;15.40;57.90;;;;;;4941046;29;20031;-63
2021/01/08 01:30:22;;;;;;;13.68;6.72;;;15.40;57.90;;;;;;4945879;28;20030;-63
2021/01/08 01:32:48;;;;;;;11.90;6.25;;;15.30;58.00;;;;;;4941663;29;20035;-62
2021/01/08 01:35:13;;;;;;;10.75;6.30;;;15.30;57.90;;;;;;4951375;28;20255;-62
2021/01/08 01:37:39;;;;;;;12.93;6.68;;;15.30;57.80;;;;;;4940004;29;20028;-62
2021/01/08 01:40:05;;;;;;;11.55;5.97;;;15.30;57.70;;;;;;4934712;29;20031;-63
2021/01/08 01:42:31;;;;;;;10.38;5.95;;;15.30;57.70;;;;;;4952335;29;20114;-62
2021/01/08 01:44:57;;;;;;;13.27;6.05;;;15.30;57.90;;;;;;4951696;28;20520;-63
2021/01/08 01:47:23;;;;;;;9.32;5.78;;;15.30;57.80;;;;;;4935112;29;20058;-63
2021/01/08 01:49:49;;;;;;;10.35;5.63;;;15.20;57.80;;;;;;4943503;29;20151;-63
2021/01/08 01:52:14;;;;;;;9.30;5.63;;;15.30;57.90;;;;;;4949966;29;20030;-63
2021/01/08 01:54:40;;;;;;;9.48;5.53;;;15.20;57.80;;;;;;4950365;28;20038;-63
2021/01/08 01:57:05;;;;;;;10.02;5.80;;;15.20;57.80;;;;;;4951789;29;20043;-63
2021/01/08 01:59:31;;;;;;;10.85;5.50;;;15.30;57.80;;;;;;4933675;29;20038;-63
2021/01/08 02:02:00;;;;;;;9.70;5.20;;;15.20;57.80;;;;;;4946819;29;20086;-63
2021/01/08 02:04:27;;;;;;;9.52;5.65;;;15.20;57.70;;;;;;4941533;28;20015;-62
2021/01/08 02:10:15;;;;;;;9.00;5.10;;;15.20;57.70;;;;;;4943370;29;20062;-64
2021/01/08 02:12:44;;;;;;;9.88;4.85;;;15.20;57.70;;;;;;4927804;29;20027;-62
2021/01/08 02:15:10;;;;;;;10.18;5.38;;;15.20;57.70;;;;;;4950293;28;20086;-62
2021/01/08 02:17:36;;;;;;;9.00;5.22;;;15.20;57.60;;;;;;4952091;29;20103;-62
2021/01/08 02:23:31;;;;;;;9.63;5.00;;;15.20;57.80;;;;;;4937632;29;20054;-63
2021/01/08 02:25:57;;;;;;;8.90;4.82;;;15.20;58.00;;;;;;4952258;29;20046;-63
2021/01/08 02:28:24;;;;;;;9.60;4.88;;;15.10;57.90;;;;;;4955514;29;20133;-62
2021/01/08 02:30:51;;;;;;;9.45;4.30;;;15.10;57.80;;;;;;4938017;29;20031;-62
2021/01/08 02:33:18;;;;;;;8.75;4.90;;;15.10;57.80;;;;;;4955296;29;20031;-63
2021/01/08 02:35:47;;;;;;;9.32;4.63;;;15.10;57.80;;;;;;4954109;29;20031;-63
2021/01/08 02:38:15;;;;;;;9.15;4.63;;;15.10;57.90;;;;;;4955399;29;20079;-62
2021/01/08 02:40:43;;;;;;;9.18;4.80;;;15.10;57.90;;;;;;4955352;29;20031;-62
2021/01/08 02:43:09;;;;;;;8.20;4.38;;;15.10;57.70;;;;;;4954339;29;20031;-62
2021/01/08 02:45:35;;;;;;;12.90;4.82;;;15.10;57.70;;;;;;4951956;28;20613;-63
2021/01/08 02:48:01;;;;;;;8.60;4.53;;;15.10;57.90;;;;;;4946506;29;20118;-63
2021/01/08 02:50:26;;;;;;;8.02;4.40;;;15.10;58.00;;;;;;4952478;28;20028;-63
2021/01/08 02:52:58;;;;;;;8.18;4.65;;;15.10;58.00;;;;;;4955112;29;20043;-63
2021/01/08 02:55:31;;;;;;;8.45;4.45;;;15.10;58.00;;;;;;4937460;29;20023;-63
2021/01/08 02:57:59;;;;;;;8.38;4.50;;;15.10;57.90;;;;;;4954972;29;20047;-63
2021/01/08 03:00:29;;;;;;;9.77;4.65;;;15.10;57.90;;;;;;4942540;29;20433;-62
2021/01/08 03:02:55;;;;;;;8.93;4.72;;;15.10;57.80;;;;;;4937406;29;20429;-63
2021/01/08 03:05:21;;;;;;;8.63;4.05;;;15.10;58.10;;;;;;4952966;28;20038;-63
2021/01/08 03:07:48;;;;;;;7.68;4.13;;;15.00;58.10;;;;;;4953917;29;20118;-63
2021/01/08 03:10:14;;;;;;;8.05;4.38;;;15.00;58.80;;;;;;4929980;29;20031;-62
2021/01/08 03:12:39;;;;;;;7.28;3.92;;;15.10;58.20;;;;;;4941299;28;20031;-63
2021/01/08 03:15:10;;;;;;;7.13;3.97;;;15.10;58.20;;;;;;4941059;28;20074;-63
2021/01/08 03:17:36;;;;;;;8.30;4.15;;;15.00;58.00;;;;;;4943992;29;20035;-64
2021/01/08 03:20:02;;;;;;;8.02;4.20;;;15.00;58.20;;;;;;4943826;28;20050;-63
2021/01/08 03:22:27;;;;;;;8.00;3.88;;;15.00;58.30;;;;;;4946418;29;20085;-63
2021/01/08 03:24:53;;;;;;;7.90;4.15;;;15.00;58.40;;;;;;4948492;28;20066;-62
2021/01/08 03:27:18;;;;;;;7.25;4.28;;;14.90;58.50;;;;;;4952844;29;20404;-63
2021/01/08 03:29:44;;;;;;;6.55;3.95;;;15.00;58.20;;;;;;4937397;29;20118;-63
2021/01/08 03:32:09;;;;;;;6.93;4.20;;;14.90;58.10;;;;;;4943777;29;20046;-63
2021/01/08 03:34:35;;;;;;;6.72;3.80;;;14.90;58.30;;;;;;4947891;28;20045;-63
2021/01/08 03:37:00;;;;;;;7.57;4.30;;;14.90;58.30;;;;;;4944910;29;20098;-63
2021/01/08 03:39:26;;;;;;;8.38;3.95;;;14.90;58.40;;;;;;4952472;29;20042;-63
2021/01/08 03:41:51;;;;;;;7.43;4.13;;;14.90;58.50;;;;;;4944009;29;20027;-63
2021/01/08 03:44:17;;;;;;;7.32;3.67;;;14.90;58.60;;;;;;4943733;28;20035;-64
2021/01/08 03:46:42;;;;;;;7.63;3.83;;;14.90;58.50;;;;;;4943914;29;20676;-63
2021/01/08 03:49:08;;;;;;;6.63;3.70;;;14.90;58.40;;;;;;4946588;29;20113;-63
2021/01/08 03:51:33;;;;;;;9.13;4.05;;;14.90;58.40;;;;;;4952665;28;20082;-64
2021/01/08 03:53:59;;;;;;;7.95;3.75;;;14.90;58.20;;;;;;4945470;28;20031;-62
2021/01/08 03:56:24;;;;;;;6.00;3.42;;;14.90;58.30;;;;;;4923775;29;20034;-63
2021/01/08 03:58:50;;;;;;;6.78;3.60;;;14.90;58.30;;;;;;4953918;29;20149;-63
2021/01/08 04:01:16;;;;;;;6.70;3.40;;;14.90;58.40;;;;;;4949371;29;20024;-63
2021/01/08 04:03:41;;;;;;;6.90;3.45;;;14.90;58.30;;;;;;4952787;29;20027;-63
2021/01/08 04:06:07;;;;;;;7.38;3.38;;;14.90;58.40;;;;;;4931513;29;20027;-63
2021/01/08 04:08:32;;;;;;;6.43;3.50;;;14.90;58.30;;;;;;4952058;29;20039;-62
2021/01/08 04:10:58;;;;;;;7.80;3.25;;;14.90;58.20;;;;;;4953329;29;20023;-63
2021/01/08 04:13:23;;;;;;;7.07;3.40;;;14.90;58.20;;;;;;4920135;29;20031;-63
2021/01/08 04:15:49;;;;;;;7.15;3.53;;;14.90;58.30;;;;;;4924292;29;20539;-62
2021/01/08 04:18:15;;;;;;;6.82;3.50;;;14.90;58.20;;;;;;4947432;29;20121;-63
2021/01/08 04:20:40;;;;;;;6.82;3.35;;;14.80;58.20;;;;;;4950129;28;20023;-62
2021/01/08 04:23:05;;;;;;;6.38;3.67;;;14.90;58.20;;;;;;4969521;28;20037;-63
2021/01/08 04:25:31;;;;;;;5.50;3.20;;;14.80;58.30;;;;;;4964385;28;20485;-63
2021/01/08 04:27:57;;;;;;;5.97;3.28;;;14.80;58.30;;;;;;4945290;29;20043;-61
2021/01/08 04:30:25;;;;;;;6.97;3.42;;;14.80;58.20;;;;;;4950923;29;20499;-62
2021/01/08 04:32:50;;;;;;;7.03;3.58;;;14.90;58.10;;;;;;4953072;29;20035;-63
2021/01/08 04:35:17;;;;;;;6.55;3.50;;;14.80;58.00;;;;;;4936851;29;20094;-62
2021/01/08 04:37:42;;;;;;;6.43;3.55;;;14.80;58.20;;;;;;4935539;29;20131;-62
2021/01/08 04:40:08;;;;;;;5.88;3.50;;;14.90;58.10;;;;;;4952270;29;20182;-63
2021/01/08 04:42:35;;;;;;;6.82;3.20;;;14.80;58.00;;;;;;4952036;28;20504;-62
2021/01/08 04:45:03;;;;;;;7.65;3.45;;;14.90;57.90;;;;;;4951354;28;20028;-62
2021/01/08 04:47:31;;;;;;;6.18;3.50;;;14.90;57.80;;;;;;4949779;29;20492;-62
2021/01/08 04:49:57;;;;;;;5.63;3.03;;;14.90;57.60;;;;;;4951260;29;20043;-62
2021/01/08 04:52:22;;;;;;;5.93;3.28;;;14.90;57.40;;;;;;4947675;29;20038;-62
2021/01/08 04:54:48;;;;;;;6.05;3.20;;;14.90;57.40;;;;;;4930263;29;20090;-63
2021/01/08 04:57:16;;;;;;;5.78;3.13;;;15.00;57.30;;;;;;4936744;29;20032;-62
2021/01/08 04:59:42;;;;;;;6.38;3.25;;;15.00;57.30;;;;;;4931719;29;20059;-63
2021/01/08 05:02:07;;;;;;;5.85;2.88;;;15.00;57.20;;;;;;4935685;29;20062;-63
2021/01/08 05:04:33;;;;;;;6.35;3.03;;;15.00;57.20;;;;;;4939678;28;20031;-62
2021/01/08 05:06:59;;;;;;;7.15;3.30;;;15.00;57.10;;;;;;4943614;29;20062;-62
2021/01/08 05:09:24;;;;;;;5.82;3.22;;;15.00;57.10;;;;;;4946884;29;20039;-63
2021/01/08 05:11:51;;;;;;;6.13;3.60;;;15.00;57.10;;;;;;4951455;29;20123;-62
2021/01/08 05:14:16;;;;;;;6.00;3.10;;;15.00;57.00;;;;;;4947329;28;20023;-62
2021/01/08 05:16:42;;;;;;;6.10;3.00;;;15.00;56.90;;;;;;4950675;29;20031;-62
2021/01/08 05:19:08;;;;;;;6.53;3.10;;;15.00;56.90;;;;;;4950791;28;20032;-63
2021/01/08 05:21:34;;;;;;;6.03;3.28;;;15.00;56.90;;;;;;4947704;29;20393;-63
2021/01/08 05:24:01;;;;;;;5.90;3.20;;;14.90;57.00;;;;;;4933248;28;20027;-61
2021/01/08 05:26:27;;;;;;;6.00;3.20;;;14.90;57.00;;;;;;4949782;29;20038;-61
2021/01/08 05:28:58;;;;;;;6.97;3.00;;;15.00;57.10;;;;;;4926125;29;20410;-62
2021/01/08 05:31:27;;;;;;;47.45;37.05;;;15.00;57.20;;;;;;4942553;28;20039;-63
2021/01/08 05:33:53;;;;;;;35.05;22.00;;;15.00;57.70;;;;;;4939745;28;20069;-63
2021/01/08 05:36:20;;;;;;;22.35;12.80;;;14.90;57.70;;;;;;4945880;28;20063;-63
2021/01/08 05:38:49;;;;;;;15.07;8.43;;;15.00;57.30;;;;;;4946718;28;20488;-64
2021/01/08 05:41:15;;;;;;;10.10;6.80;;;15.10;56.90;;;;;;4954488;28;20400;-62
2021/01/08 05:43:45;;;;;;;9.80;5.85;;;15.20;56.80;;;;;;4944512;29;20034;-62
2021/01/08 05:46:24;;;;;;;7.95;4.72;;;15.20;56.40;;;;;;4923436;29;20112;-62
2021/01/08 05:48:57;;;;;;;8.63;5.82;;;15.10;56.60;;;;;;4926444;29;20477;-63
2021/01/08 05:51:26;;;;;;;9.98;5.90;;;15.20;56.80;;;;;;4942131;29;20038;-62
2021/01/08 05:53:52;;;;;;;12.90;5.50;;;15.20;57.00;;;;;;4933908;29;20036;-63
2021/01/08 05:56:20;;;;;;;11.98;5.03;;;15.30;57.30;;;;;;4939605;29;20023;-62
2021/01/08 05:58:46;;;;;;;9.35;5.05;;;15.30;57.60;;;;;;4948803;29;20074;-62
2021/01/08 06:01:12;;;;;;;11.25;5.10;;;15.20;57.90;;;;;;4941120;29;20119;-62
2021/01/08 06:03:40;;;;;;;10.73;4.97;;;15.20;57.90;;;;;;4933292;29;20201;-62
2021/01/08 06:06:05;;;;;;;13.63;5.38;;;15.20;58.10;;;;;;4947938;28;20086;-62
2021/01/08 06:08:44;;;;;;;10.90;4.93;;;15.30;57.90;;;;;;4948603;29;20047;-62
2021/01/08 06:11:25;;;;;;;8.63;4.40;;;15.30;58.20;;;;;;4948224;29;20027;-62
2021/01/08 06:13:52;;;;;;;9.02;4.30;;;15.30;58.10;;;;;;4918846;29;20134;-60
2021/01/08 06:16:20;;;;;;;11.07;4.60;;;15.40;58.10;;;;;;4917705;29;20520;-62
2021/01/08 06:18:48;;;;;;;13.98;4.70;;;15.40;58.10;;;;;;4913950;29;20058;-62
2021/01/08 06:21:14;;;;;;;12.45;4.00;;;15.30;58.00;;;;;;4927377;28;20031;-62
2021/01/08 06:23:42;;;;;;;14.38;6.25;;;15.30;58.40;;;;;;4952884;28;20861;-62
2021/01/08 06:26:18;;;;;;;16.30;7.07;;;15.20;58.50;;;;;;4942533;28;20035;-62
2021/01/08 06:28:49;;;;;;;10.90;5.00;;;15.30;58.60;;;;;;4950787;28;20559;-63
2021/01/08 06:31:21;;;;;;;10.95;4.38;;;15.30;59.00;;;;;;4926717;29;20167;-62
2021/01/08 06:33:56;;;;;;;10.10;4.43;;;15.30;59.50;;;;;;4948125;28;20037;-62
2021/01/08 06:36:28;;;;;;;12.00;3.80;;;15.30;59.30;;;;;;4949065;29;20193;-63
2021/01/08 06:38:56;;;;;;;10.52;3.83;;;15.40;59.00;;;;;;4935683;29;20365;-63
2021/01/08 06:41:23;;;;;;;11.00;3.63;;;15.40;58.80;;;;;;4934188;29;20054;-64
2021/01/08 06:43:56;;;;;;;9.75;4.38;;;15.40;58.90;;;;;;4954350;29;20027;-62
2021/01/08 06:46:25;;;;;;;7.68;3.55;;;15.40;58.80;;;;;;4948378;29;20034;-63
2021/01/08 06:48:55;;;;;;;9.90;3.97;;;15.40;58.80;;;;;;4954342;29;20036;-64
2021/01/08 06:51:29;;;;;;;8.60;3.13;;;15.40;58.80;;;;;;4948139;29;20020;-63
2021/01/08 06:53:56;;;;;;;7.75;3.13;;;15.40;58.80;;;;;;4950065;29;20038;-61
2021/01/08 06:56:52;;;;;;;7.65;3.53;;;15.40;58.80;;;;;;4937129;29;20031;-63
2021/01/08 06:59:17;;;;;;;8.68;3.33;;;15.40;58.90;;;;;;4933085;29;20504;-63
2021/01/08 07:01:57;;;;;;;9.73;3.13;;;15.40;58.90;;;;;;4952241;29;20042;-62
2021/01/08 07:04:25;;;;;;;10.45;3.30;;;15.30;58.90;;;;;;4927104;29;20031;-63
2021/01/08 07:06:53;;;;;;;8.02;2.97;;;15.40;59.00;;;;;;4931618;29;20054;-63
2021/01/08 07:09:19;;;;;;;6.57;3.03;;;15.30;59.10;;;;;;4952007;29;20031;-63
2021/01/08 07:11:53;;;;;;;6.43;2.60;;;15.30;58.90;;;;;;4937235;29;20029;-63
2021/01/08 07:14:22;;;;;;;8.13;2.70;;;15.30;58.80;;;;;;4947331;28;20031;-63
2021/01/08 07:16:50;;;;;;;6.75;2.85;;;15.30;58.80;;;;;;4935237;29;20032;-62
2021/01/08 07:19:19;;;;;;;7.78;3.47;;;15.30;58.90;;;;;;4946767;29;20023;-64
2021/01/08 07:21:47;;;;;;;7.47;2.70;;;15.30;58.90;;;;;;4945027;29;20161;-61
2021/01/08 07:24:15;;;;;;;6.22;2.45;;;15.30;58.90;;;;;;4933655;29;20042;-63
2021/01/08 07:26:41;;;;;;;5.82;2.50;;;15.30;58.90;;;;;;4934621;29;20429;-62
2021/01/08 07:29:08;;;;;;;5.13;2.50;;;15.30;58.90;;;;;;4927375;29;20083;-63
2021/01/08 07:31:36;;;;;;;5.93;2.67;;;15.30;58.80;;;;;;4932968;29;20031;-63
2021/01/08 07:34:07;;;;;;;4.93;2.10;;;15.30;58.80;;;;;;4936648;29;21276;-63
2021/01/08 07:36:34;;;;;;;6.60;2.17;;;15.30;58.80;;;;;;4930069;29;20035;-63
2021/01/08 07:39:01;;;;;;;5.15;2.45;;;15.20;58.80;;;;;;4952812;29;20035;-63
2021/01/08 07:41:37;;;;;;;5.40;2.20;;;15.20;58.80;;;;;;4952547;29;20074;-63
2021/01/08 07:44:22;;;;;;;4.28;2.03;;;15.20;58.90;;;;;;4935737;28;20090;-64
2021/01/08 07:46:47;;;;;;;4.13;2.13;;;15.20;58.80;;;;;;4952772;29;20404;-63
2021/01/08 07:49:25;;;;;;;5.78;1.98;;;15.20;58.90;;;;;;4944865;29;20036;-63
2021/01/08 07:51:51;;;;;;;4.57;1.88;;;15.20;58.90;;;;;;4945360;29;20062;-63
2021/01/08 07:54:16;;;;;;;3.70;1.80;;;15.20;58.90;;;;;;4947645;28;20038;-62
2021/01/08 07:57:05;;;;;;;5.22;2.10;;;15.20;58.90;;;;;;4953213;29;20106;-64
2021/01/08 07:59:30;;;;;;;5.22;2.15;;;15.20;59.00;;;;;;4951370;29;20058;-63
2021/01/08 08:01:56;;;;;;;3.83;1.98;;;15.20;58.90;;;;;;4922507;29;20055;-64
2021/01/08 08:04:26;;;;;;;5.00;2.10;;;15.20;58.90;;;;;;4941168;28;20024;-62
2021/01/08 08:06:52;;;;;;;3.85;1.70;;;15.20;58.80;;;;;;4953419;29;20027;-63
2021/01/08 08:09:18;;;;;;;3.55;1.80;;;15.20;58.80;;;;;;4929795;29;20492;-63
2021/01/08 08:11:43;;;;;;;3.55;1.60;;;15.20;59.00;;;;;;4917617;29;20028;-63
2021/01/08 08:14:14;;;;;;;3.13;1.60;;;15.20;58.90;;;;;;4937159;28;20038;-64
2021/01/08 08:16:41;;;;;;;5.15;1.90;;;15.20;58.80;;;;;;4943378;29;20050;-63
2021/01/08 08:19:08;;;;;;;4.15;1.65;;;15.20;58.90;;;;;;4917742;29;20027;-63
2021/01/08 08:21:35;;;;;;;3.47;1.50;;;15.20;58.90;;;;;;4943948;28;20023;-63
2021/01/08 08:24:02;;;;;;;2.78;1.58;;;15.20;59.00;;;;;;4943564;28;20379;-63
2021/01/08 08:26:29;;;;;;;3.15;1.58;;;15.10;59.40;;;;;;4951395;29;20030;-63
2021/01/08 08:29:12;;;;;;;3.53;1.63;;;15.20;58.90;;;;;;4935255;29;20040;-64
2021/01/08 08:31:50;;;;;;;4.10;1.63;;;15.20;58.80;;;;;;4919465;29;20099;-63
2021/01/08 08:34:26;;;;;;;3.35;1.80;;;15.20;58.70;;;;;;4951620;28;20035;-63
2021/01/08 08:36:52;;;;;;;4.32;1.55;;;15.20;58.70;;;;;;4947618;29;20401;-63
2021/01/08 08:39:17;;;;;;;4.72;1.55;;;15.20;58.60;;;;;;4935964;29;20020;-64
2021/01/08 08:41:45;;;;;;;2.88;1.50;;;15.20;58.60;;;;;;4917746;29;20034;-63
2021/01/08 08:44:13;;;;;;;3.03;1.50;;;15.20;58.60;;;;;;4927733;29;20123;-62
2021/01/08 08:46:51;;;;;;;3.35;1.55;;;15.20;58.70;;;;;;4949323;29;20093;-61
2021/01/08 08:49:18;;;;;;;2.75;1.50;;;15.10;58.60;;;;;;4951603;29;20027;-63
2021/01/08 08:51:46;;;;;;;2.95;1.20;;;15.20;58.70;;;;;;4952552;29;20090;-62
2021/01/08 08:54:12;;;;;;;3.63;1.50;;;15.10;58.60;;;;;;4945165;28;20078;-63
2021/01/08 08:57:21;;;;;;;3.20;1.60;;;15.20;58.60;;;;;;4952117;28;20061;-63
2021/01/08 08:59:47;;;;;;;3.25;1.30;;;15.20;58.60;;;;;;4932690;29;20035;-62
2021/01/08 09:02:16;;;;;;;2.80;1.30;;;15.10;58.70;;;;;;4935369;29;20038;-63
2021/01/08 09:04:52;;;;;;;2.90;1.30;;;15.10;58.60;;;;;;4933962;29;20031;-63
2021/01/08 09:07:24;;;;;;;3.38;1.60;;;15.10;58.60;;;;;;4951804;29;20046;-63
2021/01/08 09:09:52;;;;;;;3.33;1.27;;;15.10;58.80;;;;;;4951487;28;20097;-62
2021/01/08 09:12:53;;;;;;;2.58;1.33;;;15.10;58.80;;;;;;4940887;28;20559;-63
2021/01/08 09:15:30;;;;;;;3.55;1.38;;;15.10;58.70;;;;;;4914376;29;20039;-62
2021/01/08 09:18:24;;;;;;;2.47;1.30;;;15.10;58.60;;;;;;4947031;28;20020;-62
2021/01/08 09:21:19;;;;;;;2.53;1.30;;;15.10;58.70;;;;;;4931243;29;20496;-63
2021/01/08 09:23:46;;;;;;;5.18;1.40;;;15.10;58.70;;;;;;4913514;28;20051;-62
2021/01/08 09:26:14;;;;;;;6.53;1.50;;;15.10;58.80;;;;;;4952357;29;20032;-62
2021/01/08 09:28:44;;;;;;;3.40;1.23;;;15.10;58.70;;;;;;4952509;29;20473;-63
2021/01/08 09:31:11;;;;;;;7.78;1.52;;;15.10;58.70;;;;;;4951144;28;20035;-63
2021/01/08 09:33:37;;;;;;;5.18;1.30;;;15.10;58.80;;;;;;4933391;29;20086;-64
2021/01/08 09:36:03;;;;;;;2.88;1.15;;;15.10;59.00;;;;;;4947290;28;20650;-63
2021/01/08 09:38:30;;;;;;;4.65;1.40;;;15.10;59.00;;;;;;4939701;29;20071;-62
2021/01/08 09:40:56;;;;;;;6.30;1.60;;;15.20;58.80;;;;;;4950781;28;20028;-62
2021/01/08 09:43:23;;;;;;;6.68;1.60;;;15.20;59.20;;;;;;4951485;29;20464;-63
2021/01/08 09:46:03;;;;;;;4.53;1.42;;;15.20;59.10;;;;;;4934839;29;20028;-63
2021/01/08 09:48:28;;;;;;;5.47;1.25;;;15.20;58.80;;;;;;4951839;28;20031;-64
2021/01/08 09:51:05;;;;;;;6.75;1.27;;;15.10;58.70;;;;;;4952389;29;20047;-63
2021/01/08 09:53:32;;;;;;;5.47;1.52;;;15.20;58.60;;;;;;4952481;29;20030;-64
2021/01/08 09:56:15;;;;;;;5.95;1.30;;;15.20;58.80;;;;;;4934429;29;20480;-63
2021/01/08 09:58:41;;;;;;;2.78;1.30;;;15.20;59.10;;;;;;4952363;29;20389;-63
2021/01/08 10:01:08;;;;;;;4.10;1.48;;;15.20;58.60;;;;;;4951428;28;20122;-63
2021/01/08 10:03:34;;;;;;;3.60;1.20;;;15.20;58.50;;;;;;4952433;29;20054;-63
2021/01/08 10:06:09;;;;;;;5.18;1.55;;;15.20;58.50;;;;;;4952036;28;20019;-63
2021/01/08 10:08:35;;;;;;;4.15;1.20;;;15.20;58.50;;;;;;4949221;29;20046;-63
2021/01/08 10:11:00;;;;;;;4.85;1.50;;;15.20;58.60;;;;;;4950848;28;20023;-63
2021/01/08 10:13:26;;;;;;;2.20;1.23;;;15.10;58.60;;;;;;4934901;29;20098;-61
2021/01/08 10:15:54;;;;;;;4.28;1.50;;;15.20;58.80;;;;;;4944238;29;20144;-62
2021/01/08 10:18:34;;;;;;;5.13;1.50;;;15.20;58.90;;;;;;4951810;28;20507;-63
2021/01/08 10:21:07;;;;;;;4.63;1.52;;;15.20;58.70;;;;;;4928372;29;20122;-62
2021/01/08 10:23:40;;;;;;;5.18;1.88;;;15.20;58.40;;;;;;4915927;29;20028;-65
2021/01/08 10:26:14;;;;;;;4.70;1.70;;;15.20;58.20;;;;;;4946138;28;20050;-62
2021/01/08 10:28:48;;;;;;;4.88;1.88;;;15.20;58.10;;;;;;4951820;29;20020;-62
2021/01/08 10:31:15;;;;;;;8.10;2.10;;;15.20;58.10;;;;;;4934194;29;20024;-62
2021/01/08 10:33:40;;;;;;;5.43;1.55;;;15.20;58.30;;;;;;4932447;29;20027;-63
2021/01/08 10:36:07;;;;;;;5.95;2.05;;;15.20;58.30;;;;;;4950113;28;20015;-63
2021/01/08 10:38:32;;;;;;;5.85;2.03;;;15.20;58.40;;;;;;4950793;29;20055;-62
2021/01/08 10:40:58;;;;;;;5.13;1.95;;;15.10;58.30;;;;;;4949668;28;20055;-63
2021/01/08 10:43:23;;;;;;;4.20;2.13;;;15.20;58.30;;;;;;4932907;29;20311;-62
2021/01/08 10:45:50;;;;;;;3.97;2.00;;;15.20;58.20;;;;;;4934978;29;20086;-62
2021/01/08 10:48:16;;;;;;;4.82;2.03;;;15.10;58.20;;;;;;4966468;28;20051;-62
2021/01/08 10:50:41;;;;;;;4.60;1.92;;;15.20;58.30;;;;;;4945708;29;20058;-63
2021/01/08 10:53:07;;;;;;;7.07;2.22;;;15.10;58.20;;;;;;4952134;28;20038;-62
2021/01/08 10:55:33;;;;;;;5.57;2.10;;;15.10;58.20;;;;;;4937901;29;20026;-63
2021/01/08 10:57:58;;;;;;;6.25;2.42;;;15.10;58.80;;;;;;4954825;29;20396;-62
2021/01/08 11:00:24;;;;;;;4.47;2.15;;;15.20;58.20;;;;;;4938608;28;20023;-63
2021/01/08 11:02:50;;;;;;;5.70;2.47;;;15.20;58.10;;;;;;4951881;29;20034;-62
2021/01/08 11:05:16;;;;;;;5.70;2.05;;;15.20;58.00;;;;;;4937512;29;20059;-62
2021/01/08 11:07:41;;;;;;;6.28;2.33;;;15.20;57.90;;;;;;4935825;29;20496;-62
2021/01/08 11:10:08;;;;;;;4.47;2.10;;;15.20;57.90;;;;;;4936439;29;20055;-62
2021/01/08 11:12:34;;;;;;;8.65;2.90;;;15.20;57.80;;;;;;4954717;29;20480;-63
2021/01/08 11:15:00;;;;;;;5.20;2.10;;;15.20;57.80;;;;;;4954067;28;20046;-62
2021/01/08 11:17:26;;;;;;;6.40;2.58;;;15.20;57.90;;;;;;4954369;29;20496;-63
2021/01/08 11:19:52;;;;;;;5.55;2.65;;;15.20;57.90;;;;;;4953883;28;20073;-63
2021/01/08 11:22:18;;;;;;;5.78;2.20;;;15.20;57.80;;;;;;4929824;29;20123;-63
2021/01/08 11:24:43;;;;;;;7.10;3.20;;;15.20;58.10;;;;;;4950878;28;20433;-63
2021/01/08 11:27:09;;;;;;;6.68;2.90;;;15.10;57.60;;;;;;4937629;29;20023;-63
2021/01/08 11:29:35;;;;;;;12.95;6.95;;;15.10;57.30;;;;;;4937456;29;20480;-62
2021/01/08 11:32:01;;;;;;;87.45;53.83;;;15.20;57.50;;;;;;4929293;28;20035;-63
2021/01/08 11:34:26;;;;;;;29.50;18.92;;;15.20;57.50;;;;;;4943877;28;20054;-63
2021/01/08 11:36:56;;;;;;;22.77;11.82;;;15.20;58.30;;;;;;4936447;29;20054;-62
2021/01/08 11:39:23;;;;;;;16.83;9.57;;;15.20;58.50;;;;;;4962943;28;20030;-62
2021/01/08 11:41:49;;;;;;;14.88;7.43;;;15.20;58.50;;;;;;4952670;29;20658;-62
2021/01/08 11:44:14;;;;;;;12.30;7.00;;;15.10;58.60;;;;;;4934528;28;20107;-62
2021/01/08 11:46:40;;;;;;;13.00;6.53;;;15.20;58.70;;;;;;4942926;29;20038;-63
2021/01/08 11:49:06;;;;;;;10.75;6.35;;;15.20;58.60;;;;;;4931098;29;20031;-63
2021/01/08 11:51:31;;;;;;;18.33;8.60;;;15.20;58.30;;;;;;4933962;29;20452;-63
2021/01/08 11:53:57;;;;;;;14.02;7.22;;;15.20;58.30;;;;;;4952988;28;20031;-62
2021/01/08 11:56:26;;;;;;;16.63;7.28;;;15.30;58.50;;;;;;4935410;28;20042;-63
2021/01/08 11:58:52;;;;;;;13.38;6.78;;;15.40;58.50;;;;;;4935971;29;20445;-63
2021/01/08 12:04:39;;;;;;;16.67;6.88;;;15.40;58.30;;;;;;4952326;28;20035;-63
2021/01/08 12:07:05;;;;;;;12.80;6.63;;;15.30;58.40;;;;;;4934941;29;20058;-62
2021/01/08 12:09:32;;;;;;;12.73;5.63;;;15.30;58.60;;;;;;4953594;29;20488;-61
2021/01/08 12:11:59;;;;;;;12.88;5.22;;;15.30;58.60;;;;;;4953094;28;20042;-61
2021/01/08 12:14:25;;;;;;;12.50;5.35;;;15.40;59.10;;;;;;4953535;28;20045;-63
2021/01/08 12:16:50;;;;;;;13.00;5.85;;;15.40;58.80;;;;;;4944012;29;20090;-62
2021/01/08 12:19:17;;;;;;;12.15;5.50;;;15.40;58.50;;;;;;4938836;29;20094;-62
2021/01/08 12:21:47;;;;;;;14.23;5.30;;;15.50;58.60;;;;;;4953446;29;20023;-62
2021/01/08 12:24:13;;;;;;;12.73;4.95;;;15.50;59.00;;;;;;4952997;29;20031;-63
2021/01/08 12:26:38;;;;;;;12.75;5.18;;;15.50;59.60;;;;;;4935635;29;20029;-62
2021/01/08 12:29:04;;;;;;;15.52;5.28;;;15.60;59.40;;;;;;4947084;28;20542;-61
2021/01/08 12:31:29;;;;;;;10.95;5.53;;;15.50;60.60;;;;;;4935738;29;20510;-63
2021/01/08 12:33:55;;;;;;;11.27;5.10;;;15.60;60.10;;;;;;4953113;28;20036;-62
2021/01/08 12:36:21;;;;;;;11.70;5.28;;;15.50;59.80;;;;;;4932720;29;20780;-63
2021/01/08 12:38:48;;;;;;;12.75;4.85;;;15.50;59.90;;;;;;4943835;28;20030;-62
2021/01/08 12:41:14;;;;;;;8.32;4.40;;;15.60;59.70;;;;;;4935659;29;20019;-63
2021/01/08 12:43:39;;;;;;;9.98;4.70;;;15.60;59.30;;;;;;4952710;29;20078;-62
2021/01/08 12:46:05;;;;;;;10.07;4.90;;;15.60;59.30;;;;;;4934723;29;20473;-62
2021/01/08 12:48:30;;;;;;;10.93;4.47;;;15.60;59.20;;;;;;4952736;29;20041;-63
2021/01/08 12:50:56;;;;;;;12.30;4.78;;;15.60;59.20;;;;;;4951979;28;20042;-63
2021/01/08 12:53:21;;;;;;;9.50;4.43;;;15.60;59.10;;;;;;4932909;29;20019;-63
2021/01/08 12:55:47;;;;;;;11.82;4.90;;;15.60;59.00;;;;;;4947723;28;20489;-62